MPTO/PTY METAR and TAF weather

Enter ICAO airport designator
Station Type Date Time Source
MPTO METAR 2019/06/27 10:00 UTC NOAA

MPTO 271000Z 00000KT 9999 SCT018 25/24 Q1007 NOSIG


Station Type Date Time Source
MPTO Decoded METAR 2019/06/27 10:00 UTC NOAA

Tocumen, Panama (MPTO) 09-03N 079-22W
Jun 27, 2019 - 06:00 AM EDT / 2019.06.27 1000 UTC
Wind: Calm:0
Visibility: greater than 7 mile(s):0
Sky conditions: partly cloudy
Temperature: 77 F (25 C)
Dew Point: 75 F (24 C)
Relative Humidity: 94%
Pressure (altimeter): 29.74 in. Hg (1007 hPa)
ob: MPTO 271000Z 00000KT 9999 SCT018 25/24 Q1007 NOSIG
cycle: 10

Station Type Date Time Source
MPTO TAF 2019/06/27 06:54 UTC NOAA

TAF TAF MPTO 270400Z 2706/2812 21004KT 9999 SCT018 PROB30
TEMPO 2718/2722 7000 SHRA SCT015CB BKN090
TEMPO 2723/2803 00000KT

Example: see airport list